createdAt,value
2018-02-12T01:39:09.541Z,2.06
2018-02-12T01:39:10.046Z,2.02
2018-02-12T01:39:10.644Z,2.02
2018-02-12T01:39:11.244Z,2.04
2018-02-12T01:39:11.847Z,2.09
2018-02-12T01:40:05.303Z,1.98
2018-02-12T01:40:05.873Z,2.04
2018-02-12T01:40:06.475Z,1.99
2018-02-12T01:40:07.072Z,2.04
2018-02-12T01:40:07.673Z,1.94
2018-02-12T01:40:08.271Z,1.98
2018-02-12T01:40:08.870Z,1.99
2018-02-12T01:40:09.470Z,1.98
2018-02-12T01:41:02.955Z,1.91
2018-02-12T01:41:03.527Z,1.98
2018-02-12T01:41:04.126Z,1.97
2018-02-12T01:41:04.724Z,1.98
2018-02-12T01:41:05.323Z,2.02
2018-02-12T01:41:05.923Z,2.01
2018-02-12T01:41:06.524Z,1.93
2018-02-12T01:41:07.129Z,2.01
2018-02-12T01:42:00.606Z,1.89
2018-02-12T01:42:01.177Z,1.98
2018-02-12T01:42:01.777Z,1.90
2018-02-12T01:42:02.377Z,1.89
2018-02-12T01:42:02.978Z,1.97
2018-02-12T01:42:03.576Z,1.90
2018-02-12T01:42:04.176Z,1.99
2018-02-12T01:42:04.778Z,1.94
2018-02-12T01:42:59.281Z,1.87
2018-02-12T01:42:59.853Z,1.89
2018-02-12T01:43:00.452Z,1.87
2018-02-12T01:43:01.052Z,1.90
2018-02-12T01:43:01.652Z,1.87
2018-02-12T01:43:02.251Z,1.85
2018-02-12T01:43:02.853Z,1.97
2018-02-12T01:43:03.453Z,1.83
2018-02-12T01:43:57.966Z,1.89
2018-02-12T01:43:58.530Z,1.85
2018-02-12T01:43:59.136Z,1.85
2018-02-12T01:43:59.727Z,1.91
2018-02-12T01:44:00.327Z,1.85
2018-02-12T01:44:00.929Z,1.89
2018-02-12T01:44:01.532Z,1.90
2018-02-12T01:44:02.130Z,1.94
2018-02-12T01:44:56.634Z,1.89
2018-02-12T01:44:57.204Z,1.94
2018-02-12T01:44:57.805Z,1.89
2018-02-12T01:44:58.405Z,1.93
2018-02-12T01:44:59.004Z,1.89
2018-02-12T01:44:59.603Z,1.90
2018-02-12T01:45:00.215Z,1.90
2018-02-12T01:45:00.805Z,1.90
2018-02-12T01:45:55.309Z,1.90
2018-02-12T01:45:55.880Z,1.90
2018-02-12T01:45:56.480Z,1.90
2018-02-12T01:45:57.080Z,1.89
2018-02-12T01:45:57.680Z,1.90
2018-02-12T01:45:58.279Z,1.94
2018-02-12T01:45:58.878Z,1.98
2018-02-12T01:45:59.480Z,1.93
2018-02-12T01:46:52.961Z,1.93
2018-02-12T01:46:53.532Z,1.79
2018-02-12T01:46:54.131Z,1.93
2018-02-12T01:46:54.733Z,1.91
2018-02-12T01:46:55.337Z,1.87
2018-02-12T01:46:55.932Z,1.85
2018-02-12T01:46:56.533Z,1.83
2018-02-12T01:46:57.132Z,1.82
2018-02-12T01:47:50.614Z,1.87
2018-02-12T01:47:51.186Z,1.93
2018-02-12T01:47:51.785Z,1.89
2018-02-12T01:47:52.386Z,1.90
2018-02-12T01:47:52.984Z,1.90
2018-02-12T01:47:53.585Z,1.89
2018-02-12T01:47:54.184Z,1.90
2018-02-12T01:47:54.783Z,1.93
2018-02-12T01:48:48.774Z,1.78
2018-02-12T01:48:49.350Z,1.90
2018-02-12T01:48:49.949Z,1.85
2018-02-12T01:48:50.548Z,1.89
2018-02-12T01:48:51.147Z,1.83
2018-02-12T01:48:51.747Z,1.85
2018-02-12T01:48:52.348Z,1.93
2018-02-12T01:49:46.837Z,1.79
2018-02-12T01:49:47.408Z,1.85
2018-02-12T01:49:48.010Z,1.91
2018-02-12T01:49:48.609Z,1.90
2018-02-12T01:49:49.209Z,1.83
2018-02-12T01:49:49.808Z,1.85
2018-02-12T01:49:50.408Z,1.90
2018-02-12T01:49:51.035Z,1.93
2018-02-12T01:50:44.490Z,1.90
2018-02-12T01:50:45.062Z,1.93
2018-02-12T01:50:45.663Z,1.90
2018-02-12T01:50:46.262Z,1.85
2018-02-12T01:50:46.863Z,1.90
2018-02-12T01:50:47.464Z,1.90
2018-02-12T01:50:48.061Z,1.93
2018-02-12T01:50:48.662Z,1.85
2018-02-12T01:51:43.163Z,1.90
2018-02-12T01:51:43.739Z,1.87
2018-02-12T01:51:44.336Z,1.90
2018-02-12T01:51:44.936Z,1.87
2018-02-12T01:51:45.537Z,1.89
2018-02-12T01:51:46.135Z,1.85
2018-02-12T01:51:46.736Z,1.82
2018-02-12T01:51:47.340Z,1.87
2018-02-12T01:52:41.863Z,1.90
2018-02-12T01:52:42.412Z,1.90
2018-02-12T01:52:43.012Z,1.90
2018-02-12T01:52:43.614Z,1.91
2018-02-12T01:52:44.212Z,1.85
2018-02-12T01:52:44.812Z,1.90
2018-02-12T01:52:45.413Z,1.89
2018-02-12T01:52:46.014Z,1.93
2018-02-12T01:53:39.494Z,1.89
2018-02-12T01:53:40.068Z,1.89
2018-02-12T01:53:40.666Z,1.89
2018-02-12T01:53:41.266Z,1.83
2018-02-12T01:53:41.865Z,1.90
2018-02-12T01:53:42.469Z,1.89
2018-02-12T01:53:43.066Z,1.89
2018-02-12T01:53:43.666Z,1.91
2018-02-12T01:54:37.144Z,1.90
2018-02-12T01:54:37.719Z,1.89
2018-02-12T01:54:38.316Z,1.89
2018-02-12T01:54:38.916Z,1.87
2018-02-12T01:54:39.517Z,1.87
2018-02-12T01:54:40.117Z,1.90
2018-02-12T01:54:40.716Z,1.91
2018-02-12T01:54:41.315Z,1.89
2018-02-12T01:55:35.821Z,1.79
2018-02-12T01:55:36.392Z,1.82
2018-02-12T01:55:36.991Z,1.87
2018-02-12T01:55:37.592Z,1.89
2018-02-12T01:55:38.191Z,1.90
2018-02-12T01:55:38.790Z,1.89
2018-02-12T01:55:39.392Z,1.89
2018-02-12T01:55:39.991Z,1.91
2018-02-12T01:56:33.472Z,1.91
2018-02-12T01:56:34.045Z,1.85
2018-02-12T01:56:34.644Z,1.90
2018-02-12T01:56:35.251Z,1.93
2018-02-12T01:56:35.844Z,1.94
2018-02-12T01:56:36.443Z,1.89
2018-02-12T01:56:37.044Z,1.90
2018-02-12T01:56:37.643Z,1.87
2018-02-12T01:57:32.146Z,1.89
2018-02-12T01:57:32.720Z,1.93
2018-02-12T01:57:33.319Z,1.93
2018-02-12T01:57:33.922Z,1.93
2018-02-12T01:57:34.524Z,1.90
2018-02-12T01:57:35.119Z,1.87
2018-02-12T01:57:35.718Z,1.89
2018-02-12T01:57:36.320Z,1.91
2018-02-12T01:58:29.799Z,1.89
2018-02-12T01:58:30.371Z,1.91
2018-02-12T01:58:30.971Z,1.89
2018-02-12T01:58:31.571Z,1.91
2018-02-12T01:58:32.172Z,1.93
2018-02-12T01:58:32.770Z,1.94
2018-02-12T01:58:33.373Z,1.91
2018-02-12T01:58:33.970Z,1.97
2018-02-12T01:59:27.452Z,2.09
2018-02-12T01:59:28.024Z,2.16
2018-02-12T01:59:28.625Z,2.04
2018-02-12T01:59:29.224Z,1.98
2018-02-12T01:59:29.823Z,1.99
2018-02-12T01:59:30.429Z,1.99
2018-02-12T01:59:31.022Z,2.12
2018-02-12T01:59:31.622Z,2.01
2018-02-12T02:00:25.102Z,2.04
2018-02-12T02:00:25.676Z,2.04
2018-02-12T02:00:26.275Z,2.08
2018-02-12T02:00:26.876Z,2.09
2018-02-12T02:00:27.476Z,2.16
2018-02-12T02:00:28.081Z,2.15
2018-02-12T02:00:28.674Z,2.06
2018-02-12T02:00:29.273Z,2.16
2018-02-12T02:01:22.754Z,2.17
2018-02-12T02:01:23.327Z,2.19
2018-02-12T02:01:23.974Z,2.19
2018-02-12T02:01:24.528Z,2.20
2018-02-12T02:01:25.127Z,2.22
2018-02-12T02:01:25.727Z,2.20
2018-02-12T02:01:26.328Z,2.26
2018-02-12T02:01:26.954Z,2.23
2018-02-12T02:02:20.407Z,2.13
2018-02-12T02:02:20.979Z,2.20
2018-02-12T02:02:21.579Z,2.20
2018-02-12T02:02:22.185Z,2.23
2018-02-12T02:02:22.778Z,2.20
2018-02-12T02:02:23.384Z,2.23
2018-02-12T02:02:23.982Z,2.15
2018-02-12T02:02:24.579Z,2.19
2018-02-12T02:03:18.098Z,2.26
2018-02-12T02:03:18.628Z,2.27
2018-02-12T02:03:19.229Z,2.26
2018-02-12T02:03:19.828Z,2.31
2018-02-12T02:03:20.432Z,2.31
2018-02-12T02:03:21.028Z,2.27
2018-02-12T02:03:21.630Z,2.28
2018-02-12T02:03:22.227Z,2.22
2018-02-12T02:04:16.732Z,2.22
2018-02-12T02:04:17.304Z,2.22
2018-02-12T02:04:17.904Z,2.31
2018-02-12T02:04:18.505Z,2.33
2018-02-12T02:04:19.104Z,2.33
2018-02-12T02:04:19.704Z,2.35
2018-02-12T02:04:20.313Z,2.33
2018-02-12T02:04:20.905Z,2.35
2018-02-12T02:05:14.391Z,2.40
2018-02-12T02:05:14.958Z,2.28
2018-02-12T02:05:15.558Z,2.40
2018-02-12T02:05:16.159Z,2.30
2018-02-12T02:05:16.758Z,2.41
2018-02-12T02:05:17.367Z,2.44
2018-02-12T02:05:17.959Z,2.41
2018-02-12T02:05:18.557Z,2.35
2018-02-12T02:06:12.038Z,2.41
2018-02-12T02:06:12.610Z,2.41
2018-02-12T02:06:13.211Z,2.33
2018-02-12T02:06:13.810Z,2.41
2018-02-12T02:06:14.410Z,2.38
2018-02-12T02:06:15.013Z,2.37
2018-02-12T02:06:15.612Z,2.41
2018-02-12T02:06:16.208Z,2.41
2018-02-12T02:07:10.712Z,2.31
2018-02-12T02:07:11.285Z,2.44
2018-02-12T02:07:11.884Z,2.40
2018-02-12T02:07:12.484Z,2.38
2018-02-12T02:07:13.084Z,2.40
2018-02-12T02:07:13.683Z,2.31
2018-02-12T02:07:14.292Z,2.33
2018-02-12T02:07:14.884Z,2.45
2018-02-12T02:08:08.365Z,2.37
2018-02-12T02:08:08.939Z,2.44
2018-02-12T02:08:09.541Z,2.33
2018-02-12T02:08:10.136Z,2.40
2018-02-12T02:08:10.734Z,2.45
2018-02-12T02:08:11.337Z,2.44
2018-02-12T02:08:11.935Z,2.33
2018-02-12T02:08:12.535Z,2.37
2018-02-12T02:09:06.022Z,2.44
2018-02-12T02:09:06.591Z,2.41
2018-02-12T02:09:07.189Z,2.40
2018-02-12T02:09:07.788Z,2.41
2018-02-12T02:09:08.388Z,2.48
2018-02-12T02:09:08.992Z,2.44
2018-02-12T02:09:09.590Z,2.44
2018-02-12T02:09:10.188Z,2.44
2018-02-12T02:10:03.674Z,2.41
2018-02-12T02:10:04.242Z,2.37
2018-02-12T02:10:04.841Z,2.44
2018-02-12T02:10:05.440Z,2.40
2018-02-12T02:10:06.046Z,2.53
2018-02-12T02:10:06.644Z,2.41
2018-02-12T02:10:07.238Z,2.44
2018-02-12T02:10:07.839Z,2.55
2018-02-12T02:11:01.320Z,2.37
2018-02-12T02:11:01.894Z,2.41
2018-02-12T02:11:02.494Z,2.41
2018-02-12T02:11:03.091Z,2.41
2018-02-12T02:11:03.692Z,2.41
2018-02-12T02:11:04.292Z,2.45
2018-02-12T02:11:04.894Z,2.49
2018-02-12T02:11:05.493Z,2.48
2018-02-12T02:11:58.973Z,2.49
2018-02-12T02:11:59.543Z,2.46
2018-02-12T02:12:00.143Z,2.49
2018-02-12T02:12:00.744Z,2.46
2018-02-12T02:12:01.344Z,2.46
2018-02-12T02:12:01.946Z,2.44
2018-02-12T02:12:02.543Z,2.51
2018-02-12T02:12:03.142Z,2.45
2018-02-12T02:12:56.624Z,2.53
2018-02-12T02:12:57.196Z,2.52
2018-02-12T02:12:57.796Z,2.52
2018-02-12T02:12:58.394Z,2.49
2018-02-12T02:12:58.994Z,2.48
2018-02-12T02:12:59.603Z,2.46
2018-02-12T02:13:00.194Z,2.58
2018-02-12T02:13:00.794Z,2.45
2018-02-12T02:13:54.276Z,2.53
2018-02-12T02:13:54.848Z,2.59
2018-02-12T02:13:55.446Z,2.55
2018-02-12T02:13:56.046Z,2.55
2018-02-12T02:13:56.647Z,2.53
2018-02-12T02:13:57.250Z,2.53
2018-02-12T02:13:57.845Z,2.58
2018-02-12T02:13:58.445Z,2.55
2018-02-12T02:14:51.932Z,2.55
2018-02-12T02:14:52.499Z,2.55
2018-02-12T02:14:53.098Z,2.56
2018-02-12T02:14:53.699Z,2.58
2018-02-12T02:14:54.298Z,2.58
2018-02-12T02:14:54.912Z,2.56
2018-02-12T02:14:55.497Z,2.66
2018-02-12T02:14:56.098Z,2.56
2018-02-12T02:15:49.577Z,2.63
2018-02-12T02:15:50.152Z,2.56
2018-02-12T02:15:50.750Z,2.58
2018-02-12T02:15:51.350Z,2.55
2018-02-12T02:15:51.949Z,2.64
2018-02-12T02:15:52.553Z,2.58
2018-02-12T02:15:53.150Z,2.61
2018-02-12T02:15:53.752Z,2.64
2018-02-12T02:16:48.254Z,2.56
2018-02-12T02:16:48.826Z,2.61
2018-02-12T02:16:49.424Z,2.55
2018-02-12T02:16:50.025Z,2.64
2018-02-12T02:16:50.623Z,2.63
2018-02-12T02:16:51.229Z,2.63
2018-02-12T02:16:51.823Z,2.61
2018-02-12T02:16:52.422Z,2.58
2018-02-12T02:17:46.930Z,2.53
2018-02-12T02:17:47.501Z,2.58
2018-02-12T02:17:48.101Z,2.53
2018-02-12T02:17:48.700Z,2.56
2018-02-12T02:17:49.300Z,2.64
2018-02-12T02:17:49.913Z,2.59
2018-02-12T02:17:50.500Z,2.64
2018-02-12T02:17:51.099Z,2.59
2018-02-12T02:18:44.586Z,2.56
2018-02-12T02:18:45.154Z,2.56
2018-02-12T02:18:45.755Z,2.56
2018-02-12T02:18:46.352Z,2.61
2018-02-12T02:18:46.953Z,2.61
2018-02-12T02:18:47.557Z,2.63
2018-02-12T02:18:48.153Z,2.61
2018-02-12T02:18:48.752Z,2.55
2018-02-12T02:19:42.238Z,2.59
2018-02-12T02:19:42.806Z,2.63
2018-02-12T02:19:43.405Z,2.63
2018-02-12T02:19:44.005Z,2.55
2018-02-12T02:19:44.604Z,2.63
2018-02-12T02:19:45.208Z,2.59
2018-02-12T02:19:45.804Z,2.55
2018-02-12T02:19:46.404Z,2.58
2018-02-12T02:20:40.909Z,2.66
2018-02-12T02:20:41.480Z,2.59
2018-02-12T02:20:42.085Z,2.64
2018-02-12T02:20:42.680Z,2.59
2018-02-12T02:20:43.279Z,2.59
2018-02-12T02:20:43.878Z,2.66
2018-02-12T02:20:44.479Z,2.63
2018-02-12T02:20:45.079Z,2.59
2018-02-12T02:21:38.647Z,2.55
2018-02-12T02:21:39.154Z,2.59
2018-02-12T02:21:39.750Z,2.59
2018-02-12T02:21:40.350Z,2.61
2018-02-12T02:21:40.947Z,2.58
2018-02-12T02:21:41.548Z,2.61
2018-02-12T02:21:42.165Z,2.59
2018-02-12T02:21:42.747Z,2.58
2018-02-12T02:22:36.315Z,2.56
2018-02-12T02:22:36.886Z,2.53
2018-02-12T02:22:37.486Z,2.64
2018-02-12T02:22:38.086Z,2.56
2018-02-12T02:22:38.686Z,2.63
2018-02-12T02:22:39.288Z,2.61
2018-02-12T02:22:39.885Z,2.56
2018-02-12T02:22:40.496Z,2.58
2018-02-12T02:23:33.965Z,2.53
2018-02-12T02:23:34.537Z,2.53
2018-02-12T02:23:35.137Z,2.59
2018-02-12T02:23:35.737Z,2.56
2018-02-12T02:23:36.337Z,2.55
2018-02-12T02:23:36.945Z,2.56
2018-02-12T02:23:37.536Z,2.55
2018-02-12T02:23:38.137Z,2.58
2018-02-12T02:24:32.641Z,2.53
2018-02-12T02:24:33.214Z,2.56
2018-02-12T02:24:33.813Z,2.61
2018-02-12T02:24:34.412Z,2.59
2018-02-12T02:24:35.013Z,2.59
2018-02-12T02:24:35.618Z,2.58
2018-02-12T02:24:36.215Z,2.58
2018-02-12T02:24:36.815Z,2.56
2018-02-12T02:25:31.316Z,2.66
2018-02-12T02:25:31.887Z,2.56
2018-02-12T02:25:32.487Z,2.51
2018-02-12T02:25:33.133Z,2.58
2018-02-12T02:25:33.688Z,2.52
2018-02-12T02:25:34.287Z,2.59
2018-02-12T02:25:34.888Z,2.61
2018-02-12T02:25:35.486Z,2.59
2018-02-12T02:26:28.974Z,2.66
2018-02-12T02:26:29.542Z,2.64
2018-02-12T02:26:30.160Z,2.66
2018-02-12T02:26:30.741Z,2.66
2018-02-12T02:26:31.341Z,2.61
2018-02-12T02:26:31.945Z,2.66
2018-02-12T02:26:32.540Z,2.63
2018-02-12T02:26:33.140Z,2.63
2018-02-12T02:27:26.623Z,2.64
2018-02-12T02:27:27.193Z,2.70
2018-02-12T02:27:27.793Z,2.71
2018-02-12T02:27:28.392Z,2.69
2018-02-12T02:27:28.992Z,2.67
2018-02-12T02:27:29.595Z,2.71
2018-02-12T02:27:30.192Z,2.71
2018-02-12T02:27:30.790Z,2.70
2018-02-12T02:28:25.301Z,2.74
2018-02-12T02:28:25.869Z,2.70
2018-02-12T02:28:26.468Z,2.71
2018-02-12T02:28:27.068Z,2.77
2018-02-12T02:28:27.667Z,2.74
2018-02-12T02:28:28.266Z,2.69
2018-02-12T02:28:28.865Z,2.73
2018-02-12T02:28:29.467Z,2.67
2018-02-12T02:29:22.947Z,2.74
2018-02-12T02:29:23.520Z,2.77
2018-02-12T02:29:24.120Z,2.74
2018-02-12T02:29:24.721Z,2.74
2018-02-12T02:29:25.335Z,2.76
2018-02-12T02:29:25.923Z,2.76
2018-02-12T02:29:26.518Z,2.69
2018-02-12T02:29:27.163Z,2.70
2018-02-12T02:30:21.632Z,2.71
2018-02-12T02:30:22.196Z,2.74
2018-02-12T02:30:22.795Z,2.70
2018-02-12T02:30:23.395Z,2.70
2018-02-12T02:30:23.993Z,2.69
2018-02-12T02:30:24.598Z,2.70
2018-02-12T02:30:25.199Z,2.71
2018-02-12T02:30:25.794Z,2.67
2018-02-12T02:31:19.275Z,2.64
2018-02-12T02:31:19.849Z,2.67
2018-02-12T02:31:20.449Z,2.69
2018-02-12T02:31:21.060Z,2.71
2018-02-12T02:31:21.654Z,2.71
2018-02-12T02:31:22.257Z,2.70
2018-02-12T02:31:22.846Z,2.73
2018-02-12T02:31:23.446Z,2.69
2018-02-12T02:32:17.950Z,2.70
2018-02-12T02:32:18.521Z,2.69
2018-02-12T02:32:19.124Z,2.71
2018-02-12T02:32:19.722Z,2.71
2018-02-12T02:32:20.328Z,2.69
2018-02-12T02:32:20.922Z,2.69
2018-02-12T02:32:21.525Z,2.74
2018-02-12T02:32:22.121Z,2.67
2018-02-12T02:33:15.607Z,2.66
2018-02-12T02:33:16.175Z,2.64
2018-02-12T02:33:16.775Z,2.66
2018-02-12T02:33:17.374Z,2.67
2018-02-12T02:33:17.979Z,2.66
2018-02-12T02:33:18.578Z,2.69
2018-02-12T02:33:19.173Z,2.69
2018-02-12T02:33:19.774Z,2.66
2018-02-12T02:34:14.278Z,2.58
2018-02-12T02:34:14.852Z,2.67
2018-02-12T02:34:15.456Z,2.61
2018-02-12T02:34:16.050Z,2.56
2018-02-12T02:34:16.650Z,2.58
2018-02-12T02:34:17.254Z,2.58
2018-02-12T02:34:17.849Z,2.64
2018-02-12T02:34:18.449Z,2.64
2018-02-12T02:35:12.958Z,2.59
2018-02-12T02:35:13.527Z,2.69
2018-02-12T02:35:14.126Z,2.61
2018-02-12T02:35:14.725Z,2.67
2018-02-12T02:35:15.324Z,2.61
2018-02-12T02:35:15.927Z,2.59
2018-02-12T02:35:16.533Z,2.64
2018-02-12T02:35:17.127Z,2.59
2018-02-12T02:53:17.068Z,2.41
2018-02-12T02:53:17.640Z,2.46
2018-02-12T02:53:18.239Z,2.41
2018-02-12T02:53:18.837Z,2.48
2018-02-12T02:53:19.439Z,2.38
2018-02-12T02:53:20.038Z,2.41
2018-02-12T02:53:20.637Z,2.38
2018-02-12T02:53:21.242Z,2.40
2018-02-12T02:54:14.719Z,2.44
2018-02-12T02:54:15.292Z,2.40
2018-02-12T02:54:15.893Z,2.44
2018-02-12T02:54:16.493Z,2.40
2018-02-12T02:54:17.091Z,2.45
2018-02-12T02:54:17.690Z,2.46
2018-02-12T02:54:18.288Z,2.49
2018-02-12T02:54:18.892Z,2.46
2018-02-12T02:55:13.403Z,2.41
2018-02-12T02:55:13.966Z,2.48
2018-02-12T02:55:14.567Z,2.41
2018-02-12T02:55:15.165Z,2.44
2018-02-12T02:55:15.766Z,2.46
2018-02-12T02:55:16.364Z,2.40
2018-02-12T02:55:16.967Z,2.41
2018-02-12T02:55:17.566Z,2.38
2018-02-12T02:56:11.048Z,2.46
2018-02-12T02:56:11.620Z,2.44
2018-02-12T02:56:12.220Z,2.46
2018-02-12T02:56:12.819Z,2.46
2018-02-12T02:56:13.419Z,2.48
2018-02-12T02:56:14.019Z,2.35
2018-02-12T02:56:14.618Z,2.46
2018-02-12T02:56:15.219Z,2.51
2018-02-12T02:57:09.212Z,2.30
2018-02-12T02:57:09.784Z,2.49
2018-02-12T02:57:10.383Z,2.40
2018-02-12T02:57:10.985Z,2.51
2018-02-12T02:57:11.582Z,2.48
2018-02-12T02:57:12.181Z,2.31
2018-02-12T02:57:12.787Z,2.37
2018-02-12T02:58:07.274Z,2.45
2018-02-12T02:58:07.844Z,2.35
2018-02-12T02:58:08.445Z,2.40
2018-02-12T02:58:09.045Z,2.44
2018-02-12T02:58:09.643Z,2.38
2018-02-12T02:58:10.247Z,2.41
2018-02-12T02:58:10.844Z,2.41
2018-02-12T02:58:11.443Z,2.38
2018-02-12T02:59:05.028Z,2.38
2018-02-12T02:59:05.600Z,2.44
2018-02-12T02:59:06.199Z,2.41
2018-02-12T02:59:06.796Z,2.34
2018-02-12T02:59:07.397Z,2.48
2018-02-12T02:59:07.996Z,2.51
2018-02-12T02:59:08.597Z,2.46
2018-02-12T02:59:09.197Z,2.41
2018-02-12T03:00:02.679Z,2.44
2018-02-12T03:00:03.252Z,2.55
2018-02-12T03:00:03.851Z,2.45
2018-02-12T03:00:04.451Z,2.40
2018-02-12T03:00:05.051Z,2.45
2018-02-12T03:00:05.650Z,2.33
2018-02-12T03:00:06.249Z,2.51
2018-02-12T03:00:06.850Z,2.40
2018-02-12T03:01:00.338Z,2.46
2018-02-12T03:01:00.904Z,2.37
2018-02-12T03:01:01.503Z,2.55
2018-02-12T03:01:02.103Z,2.44
2018-02-12T03:01:02.702Z,2.46
2018-02-12T03:01:03.302Z,2.48
2018-02-12T03:01:03.902Z,2.44
2018-02-12T03:01:04.501Z,2.45
2018-02-12T03:01:57.984Z,2.48
2018-02-12T03:01:58.555Z,2.49
2018-02-12T03:01:59.155Z,2.40
2018-02-12T03:01:59.754Z,2.46
2018-02-12T03:02:00.354Z,2.45
2018-02-12T03:02:00.960Z,2.45
2018-02-12T03:02:01.555Z,2.44
2018-02-12T03:02:02.153Z,2.41
2018-02-12T03:02:56.656Z,2.38
2018-02-12T03:02:57.230Z,2.46
2018-02-12T03:02:57.830Z,2.45
2018-02-12T03:02:58.429Z,2.55
2018-02-12T03:02:59.029Z,2.46
2018-02-12T03:02:59.628Z,2.44
2018-02-12T03:03:00.228Z,2.45
2018-02-12T03:03:00.828Z,2.44
2018-02-12T03:03:55.335Z,2.40
2018-02-12T03:03:55.905Z,2.33
2018-02-12T03:03:56.506Z,2.35
2018-02-12T03:03:57.106Z,2.37
2018-02-12T03:03:57.704Z,2.41
2018-02-12T03:03:58.309Z,2.40
2018-02-12T03:03:58.904Z,2.44
2018-02-12T03:03:59.506Z,2.41
2018-02-12T03:04:52.993Z,2.44
2018-02-12T03:04:53.558Z,2.45
2018-02-12T03:04:54.160Z,2.44
2018-02-12T03:04:54.756Z,2.45
2018-02-12T03:04:55.357Z,2.45
2018-02-12T03:04:55.991Z,2.30
2018-02-12T03:04:56.556Z,2.40
2018-02-12T03:04:57.155Z,2.41
2018-02-12T03:05:55.749Z,2.38
2018-02-12T03:05:56.244Z,2.40
2018-02-12T03:06:50.751Z,2.40
2018-02-12T03:06:51.325Z,2.40
2018-02-12T03:06:51.920Z,2.41
2018-02-12T03:06:52.518Z,2.41
2018-02-12T03:06:53.122Z,2.41
2018-02-12T03:06:53.720Z,2.41
2018-02-12T03:06:54.320Z,2.40
2018-02-12T03:07:47.790Z,2.35
2018-02-12T03:07:48.357Z,2.33
2018-02-12T03:07:48.960Z,2.35
2018-02-12T03:07:49.558Z,2.33
2018-02-12T03:07:50.159Z,2.40
2018-02-12T03:07:50.758Z,2.41
2018-02-12T03:07:51.357Z,2.26
2018-02-12T03:07:51.959Z,2.37
2018-02-12T03:08:46.465Z,2.35
2018-02-12T03:08:47.034Z,2.38
2018-02-12T03:08:47.634Z,2.26
2018-02-12T03:08:48.234Z,2.40
2018-02-12T03:08:48.834Z,2.35
2018-02-12T03:08:49.436Z,2.34
2018-02-12T03:08:50.034Z,2.30
2018-02-12T03:08:50.632Z,2.35
2018-02-12T03:09:45.140Z,2.27
2018-02-12T03:09:45.714Z,2.33
2018-02-12T03:09:46.312Z,2.30
2018-02-12T03:09:46.906Z,2.33
2018-02-12T03:09:47.506Z,2.31
2018-02-12T03:09:48.115Z,2.26
2018-02-12T03:09:48.706Z,2.28
2018-02-12T03:09:49.306Z,2.27
2018-02-12T03:10:42.792Z,2.19
2018-02-12T03:10:43.361Z,2.20
2018-02-12T03:10:43.965Z,2.17
2018-02-12T03:10:44.565Z,2.31
2018-02-12T03:10:45.160Z,2.20
2018-02-12T03:10:45.761Z,2.27
2018-02-12T03:10:46.360Z,2.34
2018-02-12T03:10:46.961Z,2.22
2018-02-12T03:11:40.444Z,2.22
2018-02-12T03:11:41.012Z,2.20
2018-02-12T03:11:41.615Z,2.23
2018-02-12T03:11:42.212Z,2.19
2018-02-12T03:11:42.814Z,2.20
2018-02-12T03:11:43.415Z,2.19
2018-02-12T03:11:44.012Z,2.19
2018-02-12T03:11:44.613Z,2.19
2018-02-12T03:12:39.120Z,2.16
2018-02-12T03:12:39.688Z,2.15
2018-02-12T03:12:40.288Z,2.20
2018-02-12T03:12:40.887Z,2.22
2018-02-12T03:12:41.488Z,2.19
2018-02-12T03:12:42.093Z,2.17
2018-02-12T03:12:42.687Z,2.19
2018-02-12T03:12:43.286Z,2.17
2018-02-12T03:13:37.796Z,2.17
2018-02-12T03:13:38.364Z,2.15
2018-02-12T03:13:38.968Z,2.19
2018-02-12T03:13:39.564Z,2.19
2018-02-12T03:13:40.164Z,2.17
2018-02-12T03:13:40.764Z,2.13
2018-02-12T03:13:41.363Z,2.15
2018-02-12T03:13:41.962Z,2.20
2018-02-12T03:14:36.470Z,2.13
2018-02-12T03:14:37.040Z,2.13
2018-02-12T03:14:37.639Z,2.15
2018-02-12T03:14:38.238Z,2.13
2018-02-12T03:14:38.839Z,2.13
2018-02-12T03:14:39.442Z,2.20
2018-02-12T03:14:40.038Z,2.16
2018-02-12T03:14:40.638Z,2.17
2018-02-12T03:15:35.146Z,2.09
2018-02-12T03:15:35.715Z,2.09
2018-02-12T03:15:36.315Z,2.09
2018-02-12T03:15:36.915Z,2.06
2018-02-12T03:15:37.513Z,2.08
2018-02-12T03:15:38.116Z,2.10
2018-02-12T03:15:38.714Z,2.15
2018-02-12T03:15:39.313Z,2.13
2018-02-12T03:16:33.821Z,2.06
2018-02-12T03:16:34.391Z,2.08
2018-02-12T03:16:34.995Z,2.12
2018-02-12T03:16:35.591Z,2.13
2018-02-12T03:16:36.191Z,2.09
2018-02-12T03:16:36.793Z,2.13
2018-02-12T03:16:37.390Z,2.09
2018-02-12T03:16:37.995Z,2.09
2018-02-12T03:17:31.476Z,2.16
2018-02-12T03:17:32.045Z,2.06
2018-02-12T03:17:32.643Z,2.10
2018-02-12T03:17:33.244Z,2.04
2018-02-12T03:17:33.843Z,2.02
2018-02-12T03:17:34.444Z,2.13
2018-02-12T03:17:35.042Z,2.09
2018-02-12T03:17:35.643Z,2.08
2018-02-12T03:18:29.125Z,2.06
2018-02-12T03:18:29.695Z,2.04
2018-02-12T03:18:30.299Z,2.04
2018-02-12T03:18:30.894Z,2.02
2018-02-12T03:18:31.495Z,2.13
2018-02-12T03:18:32.097Z,2.09
2018-02-12T03:18:32.695Z,2.06
2018-02-12T03:18:33.299Z,2.04
2018-02-12T03:19:27.804Z,1.99
2018-02-12T03:19:28.374Z,2.12
2018-02-12T03:19:28.973Z,2.02
2018-02-12T03:19:29.568Z,2.06
2018-02-12T03:19:30.168Z,2.04
2018-02-12T03:19:30.774Z,2.01
2018-02-12T03:19:31.367Z,2.10
2018-02-12T03:19:31.967Z,2.02
2018-02-12T03:20:25.454Z,1.94
2018-02-12T03:20:26.022Z,2.02
2018-02-12T03:20:26.622Z,2.06
2018-02-12T03:20:27.222Z,2.02
2018-02-12T03:20:27.821Z,2.02
2018-02-12T03:20:28.423Z,2.06
2018-02-12T03:20:29.022Z,2.09
2018-02-12T03:20:29.621Z,2.01
2018-02-12T03:21:24.128Z,1.91
2018-02-12T03:21:24.700Z,1.93
2018-02-12T03:21:25.299Z,1.99
2018-02-12T03:21:25.897Z,1.99
2018-02-12T03:21:26.497Z,1.91
2018-02-12T03:21:27.098Z,2.01
2018-02-12T03:21:27.697Z,2.02
2018-02-12T03:21:28.297Z,2.02
2018-02-12T03:22:22.805Z,1.91
2018-02-12T03:22:23.372Z,1.85
2018-02-12T03:22:23.972Z,1.93
2018-02-12T03:22:24.574Z,1.93
2018-02-12T03:22:25.173Z,1.89
2018-02-12T03:22:25.773Z,1.97
2018-02-12T03:22:26.370Z,1.90
2018-02-12T03:22:26.972Z,1.93
2018-02-12T03:23:20.456Z,1.98
2018-02-12T03:23:21.025Z,1.91
2018-02-12T03:23:21.626Z,1.82
2018-02-12T03:23:22.225Z,1.89
2018-02-12T03:23:22.824Z,1.90
2018-02-12T03:23:23.427Z,1.90
2018-02-12T03:23:24.024Z,1.90
2018-02-12T03:23:24.623Z,1.91
2018-02-12T03:24:18.108Z,1.87
2018-02-12T03:24:18.678Z,1.91
2018-02-12T03:24:19.277Z,1.87
2018-02-12T03:24:19.875Z,1.90
2018-02-12T03:24:20.475Z,1.85
2018-02-12T03:24:21.077Z,1.94
2018-02-12T03:24:21.676Z,1.87
2018-02-12T03:24:22.275Z,1.94
2018-02-12T03:25:15.760Z,1.93
2018-02-12T03:25:16.330Z,1.89
2018-02-12T03:25:16.930Z,1.87
2018-02-12T03:25:17.529Z,1.87
2018-02-12T03:25:18.131Z,1.89
2018-02-12T03:25:18.729Z,1.83
2018-02-12T03:25:19.329Z,1.93
2018-02-12T03:25:19.931Z,1.91
2018-02-12T03:26:13.417Z,1.90
2018-02-12T03:26:13.982Z,1.89
2018-02-12T03:26:14.580Z,1.89
2018-02-12T03:26:15.181Z,1.89
2018-02-12T03:26:15.779Z,1.93
2018-02-12T03:26:16.379Z,1.89
2018-02-12T03:26:16.980Z,1.89
2018-02-12T03:26:17.579Z,1.82
2018-02-12T03:27:12.088Z,1.90
2018-02-12T03:27:12.657Z,1.90
2018-02-12T03:27:13.257Z,1.90
2018-02-12T03:27:13.854Z,1.85
2018-02-12T03:27:14.454Z,1.91
2018-02-12T03:27:15.056Z,1.89
2018-02-12T03:27:15.658Z,1.85
2018-02-12T03:27:16.253Z,1.89
2018-02-12T03:28:10.762Z,1.83
2018-02-12T03:28:11.331Z,1.79
2018-02-12T03:28:11.932Z,1.79
2018-02-12T03:28:12.531Z,1.91
2018-02-12T03:28:13.132Z,1.87
2018-02-12T03:28:13.731Z,1.90
2018-02-12T03:28:14.329Z,1.83
2018-02-12T03:28:14.931Z,1.85
2018-02-12T03:29:08.416Z,1.79
2018-02-12T03:29:08.983Z,1.91
2018-02-12T03:29:09.584Z,1.87
2018-02-12T03:29:10.183Z,1.87
2018-02-12T03:29:10.782Z,1.85
2018-02-12T03:29:11.384Z,1.79
2018-02-12T03:29:11.983Z,1.87
2018-02-12T03:29:12.582Z,1.87
2018-02-12T03:30:06.067Z,1.80
2018-02-12T03:30:06.636Z,1.85
2018-02-12T03:30:07.236Z,1.79
2018-02-12T03:30:07.835Z,1.85
2018-02-12T03:30:08.435Z,1.80
2018-02-12T03:30:09.035Z,1.79
2018-02-12T03:30:09.634Z,1.80
2018-02-12T03:30:10.237Z,1.79
2018-02-12T03:31:03.717Z,1.83
2018-02-12T03:31:04.288Z,1.89
2018-02-12T03:31:04.888Z,1.78
2018-02-12T03:31:05.489Z,1.79
2018-02-12T03:31:06.088Z,1.80
2018-02-12T03:31:06.687Z,1.87
2018-02-12T03:31:07.286Z,1.91
2018-02-12T03:31:07.885Z,1.87
2018-02-12T03:32:01.369Z,1.79
2018-02-12T03:32:01.938Z,1.76
2018-02-12T03:32:02.538Z,1.80
2018-02-12T03:32:03.139Z,1.76
2018-02-12T03:32:03.737Z,1.73
2018-02-12T03:32:04.339Z,1.80
2018-02-12T03:32:04.937Z,1.76
2018-02-12T03:32:05.539Z,1.83
2018-02-12T03:32:59.020Z,1.87
2018-02-12T03:32:59.590Z,1.87
2018-02-12T03:33:00.191Z,1.79
2018-02-12T03:33:00.790Z,1.78
2018-02-12T03:33:01.389Z,1.79
2018-02-12T03:33:01.990Z,1.80
2018-02-12T03:33:02.589Z,1.79
2018-02-12T03:33:03.191Z,1.78
2018-02-12T03:33:57.695Z,1.75
2018-02-12T03:33:58.265Z,1.79
2018-02-12T03:33:58.866Z,1.82